Annabelle Dorothy Moran — WDG5993 — position and weather

sailwx.info

Track history (hours):
 
Tides and Currents Weather Stations Pressure Air Temp Water Temp Dewpoint Dewpoint Depression Visibility Wind Speed Wind Dir Waves Ship Positions

Annabelle Dorothy Moran

Owner: Moran Towing Corporation, New Canaan, CT. More information available from US FCC via Universal Licensing System and Coast Guard Vessel Documentation Center.

Last reported at 2018-Jun-25 15:30 UTC. Time now 2018-Jun-25 15:38 UTC.
Position N 40°07' W 074°48'.

Length 26 m; draft 4.8 m.

Type: Tug. MMSI: 367552410.

Date/timePositionNaut miles runAvg speedWind from/ knotsBaromVisibWave heightAir tempDewpointWater temp
2018-Jun-25 15:30N 40°07' W 074°48'2 5.0
2018-Jun-25 15:00N 40°08' W 074°45'0 0.0
2018-Jun-25 14:30N 40°08' W 074°45'0 0.0
2018-Jun-25 14:00N 40°08' W 074°45'0 0.0
2018-Jun-25 13:29N 40°08' W 074°45'0 0.0
2018-Jun-25 09:12N 40°08' W 074°45'0 1.4
2018-Jun-25 08:57N 40°08' W 074°46'0 0.7
2018-Jun-25 08:30N 40°08' W 074°46'1 1.6
2018-Jun-25 08:00N 40°08' W 074°45'0 0.0
2018-Jun-25 07:30N 40°08' W 074°45'0 0.0
2018-Jun-25 07:00N 40°08' W 074°45'0 0.0
2018-Jun-25 06:31N 40°08' W 074°45'0 0.0
2018-Jun-25 06:00N 40°08' W 074°45'3 6.9
2018-Jun-25 05:30N 40°07' W 074°50'4 8.6
2018-Jun-25 05:01N 40°05' W 074°54'5 9.6
2018-Jun-25 04:30N 40°02' W 074°59'5 9.8
2018-Jun-25 04:00N 39°59' W 075°04'4 8.9
2018-Jun-25 03:30N 39°56' W 075°08'3 6.5
2018-Jun-25 03:00N 39°53' W 075°11'0 0.0
2018-Jun-25 02:30N 39°53' W 075°11'0 0.0
2018-Jun-25 02:00N 39°53' W 075°11'0 0.1
2018-Jun-25 01:30N 39°53' W 075°11'0 0.1
2018-Jun-25 01:00N 39°53' W 075°11'0 0.1
2018-Jun-25 00:30N 39°53' W 075°11'0 0.1
2018-Jun-25 00:00N 39°53' W 075°11'0 0.0
2018-Jun-24 23:30N 39°53' W 075°11'0 0.0
2018-Jun-24 23:00N 39°53' W 075°11'0 0.0
2018-Jun-24 22:30N 39°53' W 075°11'0 0.0
2018-Jun-24 22:00N 39°53' W 075°11'0 0.0
2018-Jun-24 21:30N 39°53' W 075°11'0 0.0
2018-Jun-24 21:00N 39°53' W 075°11'0 0.0
2018-Jun-24 20:30N 39°53' W 075°11'0 0.0
2018-Jun-24 20:00N 39°53' W 075°11'0 0.0
2018-Jun-24 19:30N 39°53' W 075°11'0 0.0
2018-Jun-24 19:00N 39°53' W 075°11'0 0.0
2018-Jun-24 18:30N 39°53' W 075°11'0 0.0
2018-Jun-24 18:00N 39°53' W 075°11'0 0.0
2018-Jun-24 17:30N 39°53' W 075°11'0 0.0
2018-Jun-24 17:00N 39°53' W 075°11'0 0.0
2018-Jun-24 16:30N 39°53' W 075°11'0 0.0
2018-Jun-24 16:00N 39°53' W 075°11'0 0.0
2018-Jun-24 15:30N 39°53' W 075°11'0 0.0
2018-Jun-24 15:00N 39°53' W 075°11'0 0.0
2018-Jun-24 14:30N 39°53' W 075°11'0 0.0
2018-Jun-24 14:00N 39°53' W 075°11'0 0.0
2018-Jun-24 13:30N 39°53' W 075°11'0 0.0
2018-Jun-24 13:01N 39°53' W 075°11'1 2.4
2018-Jun-24 12:31N 39°53' W 075°09'0 0.1
2018-Jun-24 12:00N 39°53' W 075°09'2 3.4
2018-Jun-24 11:30N 39°54' W 075°08'0 0.3
2018-Jun-24 11:00N 39°54' W 075°08'0 0.0
2018-Jun-24 10:30N 39°54' W 075°08'0 0.0
2018-Jun-24 10:00N 39°54' W 075°08'0 0.0
2018-Jun-24 09:30N 39°54' W 075°08'1 2.0
2018-Jun-24 09:00N 39°53' W 075°09'2 3.1
2018-Jun-24 08:30N 39°53' W 075°11'0 0.0
2018-Jun-24 08:00N 39°53' W 075°11'0 0.0
2018-Jun-24 07:30N 39°53' W 075°11'0 0.0
2018-Jun-24 07:00N 39°53' W 075°11'0 0.0
2018-Jun-24 06:30N 39°53' W 075°11'0 0.0
2018-Jun-24 06:00N 39°53' W 075°11'0 0.0
2018-Jun-24 05:30N 39°53' W 075°11'0 0.0
2018-Jun-24 05:00N 39°53' W 075°11'0 0.0
2018-Jun-24 04:30N 39°53' W 075°11'0 0.0
2018-Jun-24 04:00N 39°53' W 075°11'0 0.0
2018-Jun-24 03:30N 39°53' W 075°11'0 0.0
2018-Jun-24 03:00N 39°53' W 075°11'0 0.0
2018-Jun-24 02:30N 39°53' W 075°11'0 0.0
2018-Jun-24 02:00N 39°53' W 075°11'0 0.0
2018-Jun-24 01:30N 39°53' W 075°11'0 0.0
2018-Jun-24 01:00N 39°53' W 075°11'0 0.0
2018-Jun-24 00:30N 39°53' W 075°11'3 5.6
2018-Jun-24 00:00N 39°52' W 075°14'2 4.2
2018-Jun-23 23:31N 39°51' W 075°16'0 0.1
2018-Jun-23 23:01N 39°51' W 075°16'1 2.3
2018-Jun-23 22:30N 39°51' W 075°15'4 7.4
2018-Jun-23 22:00N 39°53' W 075°11'0 0.0
2018-Jun-23 21:30N 39°53' W 075°11'0 0.0
2018-Jun-23 21:00N 39°53' W 075°11'0 0.0
2018-Jun-23 20:31N 39°53' W 075°11'0 0.0
2018-Jun-23 20:00N 39°53' W 075°11'0 0.0
2018-Jun-23 19:30N 39°53' W 075°11'0 0.0
2018-Jun-23 19:00N 39°53' W 075°11'0 0.0
2018-Jun-23 18:31N 39°53' W 075°11'0 0.0
2018-Jun-23 18:00N 39°53' W 075°11'0 0.0
2018-Jun-23 17:30N 39°53' W 075°11'0 0.0
2018-Jun-23 17:00N 39°53' W 075°11'0 0.0
2018-Jun-23 16:30N 39°53' W 075°11'0 0.0
2018-Jun-23 16:00N 39°53' W 075°11'0 0.0
2018-Jun-23 15:30N 39°53' W 075°11'0 0.0
2018-Jun-23 15:00N 39°53' W 075°11'0 0.0
2018-Jun-23 14:30N 39°53' W 075°11'1 1.9
2018-Jun-23 14:01N 39°53' W 075°12'1 2.7
2018-Jun-23 13:30N 39°52' W 075°13'0 0.0
2018-Jun-23 13:00N 39°52' W 075°13'0 0.6
2018-Jun-23 12:30N 39°52' W 075°13'0 0.3
2018-Jun-23 12:00N 39°52' W 075°14'2 4.8
2018-Jun-23 11:30N 39°53' W 075°11'0 0.5
2018-Jun-23 11:00N 39°53' W 075°11'0 0.0
2018-Jun-23 10:30N 39°53' W 075°11'0 0.0
2018-Jun-23 10:00N 39°53' W 075°11'0 0.0
2018-Jun-23 09:31N 39°53' W 075°11'0 0.0
2018-Jun-23 09:01N 39°53' W 075°11'0 0.0
2018-Jun-23 08:30N 39°53' W 075°11'0 0.0
2018-Jun-23 08:01N 39°53' W 075°11'0 0.0
2018-Jun-23 07:30N 39°53' W 075°11'0 0.0
2018-Jun-23 07:01N 39°53' W 075°11'0 0.0
2018-Jun-23 06:30N 39°53' W 075°11'0 0.0
2018-Jun-23 06:00N 39°53' W 075°11'0 0.0
2018-Jun-23 05:30N 39°53' W 075°11'0 0.0
2018-Jun-23 05:00N 39°53' W 075°11'2 4.0
2018-Jun-23 04:30N 39°54' W 075°08'4 8.8
2018-Jun-23 04:00N 39°58' W 075°07'1 1.9
2018-Jun-23 03:31N 39°59' W 075°06'0 0.0
2018-Jun-23 03:01N 39°59' W 075°06'0 0.2
2018-Jun-23 02:30N 39°59' W 075°06'4 7.5
2018-Jun-23 02:00N 39°55' W 075°08'1 2.4
2018-Jun-23 01:31N 39°54' W 075°08'1 1.5
2018-Jun-23 01:00N 39°53' W 075°08'4 8.4
2018-Jun-23 00:31N 39°52' W 075°13'0 1.0
2018-Jun-23 00:00N 39°51' W 075°14'0 0.0
2018-Jun-22 23:30N 39°51' W 075°14'0 1.0
2018-Jun-22 23:00N 39°52' W 075°14'1 1.0
2018-Jun-22 22:30N 39°52' W 075°13'2 4.2
2018-Jun-22 22:00N 39°54' W 075°12'1 1.4
2018-Jun-22 21:30N 39°53' W 075°12'0 0.5
2018-Jun-22 21:00N 39°53' W 075°12'2 4.2
2018-Jun-22 20:30N 39°53' W 075°09'1 2.4
2018-Jun-22 20:00N 39°54' W 075°08'0 0.3
2018-Jun-22 19:31N 39°54' W 075°08'0 0.0
2018-Jun-22 19:00N 39°54' W 075°08'0 0.0
2018-Jun-22 18:30N 39°54' W 075°08'2 4.3
2018-Jun-22 18:00N 39°56' W 075°08'0 0.2
2018-Jun-22 17:30N 39°56' W 075°08'2 4.2
2018-Jun-22 17:00N 39°54' W 075°08'0 0.0
2018-Jun-22 16:30N 39°54' W 075°08'2 4.2
2018-Jun-22 15:59N 39°56' W 075°08'4 7.4
2018-Jun-22 15:30N 39°59' W 075°05'1 0.7
2018-Jun-22 14:30N 39°59' W 075°04'1 2.5
2018-Jun-22 14:00N 39°59' W 075°06'0 0.4
2018-Jun-22 13:24N 39°59' W 075°06'0 0.6
2018-Jun-22 13:00N 39°59' W 075°06'0 0.0
2018-Jun-22 12:30N 39°59' W 075°06'0 0.0
2018-Jun-22 12:00N 39°59' W 075°06'0 0.0
2018-Jun-22 11:30N 39°59' W 075°06'0 0.0
2018-Jun-22 11:00N 39°59' W 075°06'0 0.0
2018-Jun-22 10:30N 39°59' W 075°06'0 0.0
2018-Jun-22 10:00N 39°59' W 075°06'0 0.0
2018-Jun-22 09:31N 39°59' W 075°06'0 0.0
2018-Jun-22 09:01N 39°59' W 075°06'0 0.0
2018-Jun-22 08:30N 39°59' W 075°06'0 0.0
2018-Jun-22 08:00N 39°59' W 075°06'0 0.0
2018-Jun-22 07:30N 39°59' W 075°06'0 0.0
2018-Jun-22 07:00N 39°59' W 075°06'0 0.0
2018-Jun-22 06:30N 39°59' W 075°06'0 0.0
2018-Jun-22 06:00N 39°59' W 075°06'0 0.0
2018-Jun-22 05:30N 39°59' W 075°06'0 0.0
2018-Jun-22 05:00N 39°59' W 075°06'0 0.0
2018-Jun-22 04:30N 39°59' W 075°06'0 0.0
2018-Jun-22 04:00N 39°59' W 075°06'0 0.0
2018-Jun-22 03:30N 39°59' W 075°06'0 0.0
2018-Jun-22 03:00N 39°59' W 075°06'2 4.6
2018-Jun-22 02:30N 39°57' W 075°08'4 8.7
2018-Jun-22 02:00N 39°53' W 075°09'0 0.1
2018-Jun-22 01:30N 39°53' W 075°09'1 1.3
2018-Jun-22 01:00N 39°53' W 075°10'2 3.6
2018-Jun-22 00:30N 39°54' W 075°12'1 2.3
2018-Jun-21 23:58N 39°53' W 075°11'0 0.0
2018-Jun-21 23:30N 39°53' W 075°11'2 4.2
2018-Jun-21 23:00N 39°54' W 075°08'0 0.5
2018-Jun-21 22:30N 39°54' W 075°08'1 2.4
2018-Jun-21 22:00N 39°53' W 075°09'0 0.9
2018-Jun-21 21:30N 39°53' W 075°09'2 3.2
2018-Jun-21 21:00N 39°54' W 075°08'0 0.0
2018-Jun-21 20:30N 39°54' W 075°08'0 1.0
2018-Jun-21 20:00N 39°54' W 075°08'4 7.2
2018-Jun-21 19:30N 39°52' W 075°12'4 7.6
2018-Jun-21 19:00N 39°51' W 075°17'3 5.0
2018-Jun-21 18:29N 39°51' W 075°20'0 0.9
2018-Jun-21 18:00N 39°51' W 075°21'2 3.8
2018-Jun-21 17:30N 39°50' W 075°23'2 4.5
2018-Jun-21 17:00N 39°51' W 075°20'0 0.0
2018-Jun-21 16:30N 39°51' W 075°20'0 0.0
2018-Jun-21 16:00N 39°51' W 075°20'0 0.0
2018-Jun-21 15:30N 39°51' W 075°20'510.0
2018-Jun-21 15:00N 39°52' W 075°14'3 5.5
2018-Jun-21 14:30N 39°53' W 075°11'0 0.3
2018-Jun-21 14:00N 39°53' W 075°11'0 0.1
2018-Jun-21 13:30N 39°53' W 075°11'0 0.5
2018-Jun-21 13:00N 39°53' W 075°11'0 0.0
2018-Jun-21 12:30N 39°53' W 075°11'0 0.0
2018-Jun-21 12:00N 39°53' W 075°11'0 0.0
2018-Jun-21 11:30N 39°53' W 075°11'0 0.0
2018-Jun-21 11:00N 39°53' W 075°11'0 0.0
2018-Jun-21 10:30N 39°53' W 075°11'0 0.0
2018-Jun-21 10:01N 39°53' W 075°11'0 0.0
2018-Jun-21 09:30N 39°53' W 075°11'0 0.0
2018-Jun-21 09:00N 39°53' W 075°11'0 0.0
2018-Jun-21 08:30N 39°53' W 075°11'0 0.0
2018-Jun-21 08:01N 39°53' W 075°11'0 0.0
2018-Jun-21 07:30N 39°53' W 075°11'0 0.0
2018-Jun-21 07:01N 39°53' W 075°11'0 0.0
2018-Jun-21 06:30N 39°53' W 075°11'0 0.0
2018-Jun-21 06:00N 39°53' W 075°11'0 0.0
2018-Jun-21 05:30N 39°53' W 075°11'2 4.3
2018-Jun-21 05:00N 39°52' W 075°13'4 8.0
2018-Jun-21 04:30N 39°51' W 075°18'4 7.8
2018-Jun-21 04:00N 39°49' W 075°23'4 8.4
2018-Jun-21 03:30N 39°47' W 075°27'4 8.4
2018-Jun-21 03:00N 39°44' W 075°30'1 2.2
2018-Jun-21 02:30N 39°43' W 075°31'2 3.1
2018-Jun-21 02:00N 39°41' W 075°31'510.0
2018-Jun-21 01:30N 39°37' W 075°35'2 3.7
2018-Jun-21 01:00N 39°35' W 075°35'0 0.8
2018-Jun-21 00:30N 39°35' W 075°36'0 0.0
2018-Jun-21 00:00N 39°35' W 075°36'1 1.6
2018-Jun-20 23:30N 39°35' W 075°35'3 5.7
2018-Jun-20 23:00N 39°32' W 075°33'3 6.9
2018-Jun-20 22:30N 39°35' W 075°35'1 2.6
2018-Jun-20 22:00N 39°35' W 075°34'4 7.8
2018-Jun-20 21:30N 39°39' W 075°33'4 7.3
2018-Jun-20 21:00N 39°43' W 075°31'0 0.0
2018-Jun-20 20:30N 39°43' W 075°31'0 0.2
2018-Jun-20 20:00N 39°42' W 075°31'4 6.9
2018-Jun-20 19:30N 39°46' W 075°29'4 7.8
2018-Jun-20 19:00N 39°48' W 075°25'5 9.1
2018-Jun-20 18:30N 39°51' W 075°20'5 9.7
2018-Jun-20 18:00N 39°52' W 075°14'3 6.3
2018-Jun-20 17:30N 39°53' W 075°11'0 0.0
2018-Jun-20 17:00N 39°53' W 075°11'0 0.0
2018-Jun-20 16:31N 39°53' W 075°11'0 0.1
2018-Jun-20 16:01N 39°53' W 075°11'2 4.6
2018-Jun-20 15:30N 39°54' W 075°08'0 0.0
2018-Jun-20 15:00N 39°54' W 075°08'2 3.5
2018-Jun-20 14:31N 39°53' W 075°10'1 1.7
2018-Jun-20 14:01N 39°53' W 075°11'0 0.0
2018-Jun-20 13:31N 39°53' W 075°11'0 0.0
2018-Jun-20 13:01N 39°53' W 075°11'0 0.0
2018-Jun-20 12:31N 39°53' W 075°11'0 0.2
2018-Jun-20 12:00N 39°53' W 075°11'5 9.7
2018-Jun-20 11:31N 39°51' W 075°16'510.6
2018-Jun-20 11:00N 39°49' W 075°23'1 2.7
2018-Jun-20 10:30N 39°49' W 075°24'0 0.0
2018-Jun-20 10:00N 39°49' W 075°24'0 0.0
2018-Jun-20 09:30N 39°49' W 075°24'1 2.2
2018-Jun-20 09:00N 39°49' W 075°23'4 7.6
2018-Jun-20 08:30N 39°51' W 075°19'4 8.0
2018-Jun-20 08:00N 39°52' W 075°14'1 1.4
2018-Jun-20 07:30N 39°52' W 075°13'2 4.1
2018-Jun-20 07:00N 39°53' W 075°11'0 0.0
2018-Jun-20 06:30N 39°53' W 075°11'0 0.0
2018-Jun-20 06:00N 39°53' W 075°11'0 0.0
2018-Jun-20 05:30N 39°53' W 075°11'0 0.0
2018-Jun-20 05:00N 39°53' W 075°11'0 0.0
2018-Jun-20 04:30N 39°53' W 075°11'0 0.0
2018-Jun-20 04:00N 39°53' W 075°11'0 0.0
2018-Jun-20 03:30N 39°53' W 075°11'0 0.0
2018-Jun-20 03:00N 39°53' W 075°11'0 0.0
2018-Jun-20 02:31N 39°53' W 075°11'0 0.0
2018-Jun-20 02:00N 39°53' W 075°11'0 0.0
2018-Jun-20 01:30N 39°53' W 075°11'0 0.1
2018-Jun-20 01:00N 39°53' W 075°11'0 0.1
2018-Jun-20 00:30N 39°53' W 075°11'0 0.0
2018-Jun-20 00:00N 39°53' W 075°11'0 0.0
2018-Jun-19 23:30N 39°53' W 075°11'0 0.0
2018-Jun-19 23:00N 39°53' W 075°11'0 0.0
2018-Jun-19 22:31N 39°53' W 075°11'0 0.0
2018-Jun-19 22:00N 39°53' W 075°11'0 0.0
2018-Jun-19 21:30N 39°53' W 075°11'0 0.0
2018-Jun-19 21:01N 39°53' W 075°11'0 0.0
2018-Jun-19 20:30N 39°53' W 075°11'0 0.0
2018-Jun-19 20:01N 39°53' W 075°11'2 3.6
2018-Jun-19 19:30N 39°54' W 075°08'1 1.3
2018-Jun-19 19:00N 39°54' W 075°08'2 3.7
2018-Jun-19 18:31N 39°53' W 075°10'1 1.6
2018-Jun-19 18:00N 39°53' W 075°11'0 0.0
2018-Jun-19 17:31N 39°53' W 075°11'2 4.7
2018-Jun-19 17:00N 39°54' W 075°08'0 0.2
2018-Jun-19 16:30N 39°54' W 075°08'2 4.3
2018-Jun-19 16:01N 39°53' W 075°11'0 0.0
2018-Jun-19 15:30N 39°53' W 075°11'0 0.0
2018-Jun-19 15:01N 39°53' W 075°11'0 0.0
2018-Jun-19 14:31N 39°53' W 075°11'0 0.0
2018-Jun-19 14:00N 39°53' W 075°11'0 0.0
2018-Jun-19 13:31N 39°53' W 075°11'0 0.0
2018-Jun-19 13:00N 39°53' W 075°11'0 0.5
2018-Jun-19 12:30N 39°53' W 075°11'0 0.0
2018-Jun-19 12:00N 39°53' W 075°11'1 2.1
2018-Jun-19 11:31N 39°53' W 075°12'1 2.5
2018-Jun-19 11:00N 39°53' W 075°11'0 0.0
2018-Jun-19 10:30N 39°53' W 075°11'0 0.0
2018-Jun-19 10:01N 39°53' W 075°11'0 0.0
2018-Jun-19 09:30N 39°53' W 075°11'0 0.0
2018-Jun-19 09:01N 39°53' W 075°11'0 0.0
2018-Jun-19 08:30N 39°53' W 075°11'0 0.0
2018-Jun-19 08:01N 39°53' W 075°11'0 0.0
2018-Jun-19 07:31N 39°53' W 075°11'2 3.7
2018-Jun-19 07:00N 39°54' W 075°08'1 1.3
2018-Jun-19 06:31N 39°54' W 075°08'0 0.2
2018-Jun-19 06:00N 39°54' W 075°08'0 0.1
2018-Jun-19 05:31N 39°54' W 075°08'0 0.0
2018-Jun-19 05:00N 39°54' W 075°08'0 0.0
2018-Jun-19 04:30N 39°54' W 075°08'0 0.2
2018-Jun-19 04:01N 39°54' W 075°08'1 2.3
2018-Jun-19 03:31N 39°55' W 075°08'1 2.5
2018-Jun-19 03:01N 39°54' W 075°08'0 0.2
2018-Jun-19 02:30N 39°54' W 075°08'0 0.0
2018-Jun-19 02:00N 39°54' W 075°08'0 0.0
2018-Jun-19 01:30N 39°54' W 075°08'0 1.0
2018-Jun-19 01:01N 39°54' W 075°08'0 0.1
2018-Jun-19 00:30N 39°54' W 075°08'2 3.8
2018-Jun-19 00:01N 39°53' W 075°10'1 1.8
2018-Jun-18 23:31N 39°53' W 075°11'0 0.0
2018-Jun-18 23:00N 39°53' W 075°11'1 1.5
2018-Jun-18 22:31N 39°53' W 075°10'2 3.6
2018-Jun-18 22:01N 39°54' W 075°08'0 1.0
2018-Jun-18 21:30N 39°54' W 075°08'2 4.3
2018-Jun-18 21:00N 39°53' W 075°11'2 3.0
2018-Jun-18 20:30N 39°53' W 075°09'1 2.9
2018-Jun-18 20:00N 39°53' W 075°11'0 0.0
2018-Jun-18 19:30N 39°53' W 075°11'0 0.0
2018-Jun-18 19:00N 39°53' W 075°11'0 0.0
2018-Jun-18 18:31N 39°53' W 075°11'0 0.0
2018-Jun-18 18:00N 39°53' W 075°11'1 1.7
2018-Jun-18 17:31N 39°54' W 075°12'0 0.0
2018-Jun-18 17:01N 39°54' W 075°12'0 0.1
2018-Jun-18 16:30N 39°53' W 075°12'0 0.0
2018-Jun-18 16:00N 39°53' W 075°12'0 0.0
2018-Jun-18 15:30N 39°53' W 075°12'0 0.0
2018-Jun-18 15:00N 39°53' W 075°12'0 0.0
2018-Jun-18 14:31N 39°53' W 075°12'1 1.7
2018-Jun-18 14:00N 39°53' W 075°11'0 0.0
2018-Jun-18 13:30N 39°53' W 075°11'0 0.0
2018-Jun-18 13:00N 39°53' W 075°11'0 0.0
2018-Jun-18 12:30N 39°53' W 075°11'0 0.0
2018-Jun-18 12:00N 39°53' W 075°11'0 0.2
2018-Jun-18 11:31N 39°53' W 075°11'2 4.8
2018-Jun-18 11:01N 39°54' W 075°08'4 8.4
2018-Jun-18 10:31N 39°58' W 075°07'1 2.2
2018-Jun-18 10:01N 39°59' W 075°06'1 1.6
2018-Jun-18 09:31N 39°58' W 075°06'5 9.2
2018-Jun-18 09:01N 39°54' W 075°08'0 0.2
2018-Jun-18 08:30N 39°54' W 075°08'0 0.8
2018-Jun-18 08:01N 39°53' W 075°08'2 3.6
2018-Jun-18 07:30N 39°53' W 075°11'0 0.0
2018-Jun-18 07:01N 39°53' W 075°11'0 0.0
2018-Jun-18 06:30N 39°53' W 075°11'0 0.0
2018-Jun-18 06:00N 39°53' W 075°11'1 1.7
2018-Jun-18 05:31N 39°53' W 075°10'0 0.0
2018-Jun-18 05:00N 39°53' W 075°10'0 0.0
2018-Jun-18 04:30N 39°53' W 075°10'0 0.5
2018-Jun-18 04:01N 39°53' W 075°10'2 4.2
2018-Jun-18 03:31N 39°52' W 075°13'2 3.4
2018-Jun-18 03:00N 39°53' W 075°11'0 0.0
2018-Jun-18 02:30N 39°53' W 075°11'0 0.0
2018-Jun-18 02:00N 39°53' W 075°11'0 0.0
2018-Jun-18 01:30N 39°53' W 075°11'0 0.0
2018-Jun-18 01:01N 39°53' W 075°11'0 0.1
2018-Jun-18 00:30N 39°53' W 075°11'0 0.0
2018-Jun-18 00:00N 39°53' W 075°11'0 0.0
2018-Jun-17 23:30N 39°53' W 075°11'0 0.0
2018-Jun-17 23:00N 39°53' W 075°11'0 0.0
2018-Jun-17 22:30N 39°53' W 075°11'0 0.0
2018-Jun-17 22:00N 39°53' W 075°11'0 0.0
2018-Jun-17 21:30N 39°53' W 075°11'0 0.0
2018-Jun-17 21:00N 39°53' W 075°11'0 0.0
2018-Jun-17 20:30N 39°53' W 075°11'0 0.0
2018-Jun-17 20:00N 39°53' W 075°11'0 0.0
2018-Jun-17 19:30N 39°53' W 075°11'0 0.1
2018-Jun-17 19:00N 39°53' W 075°11'0 0.5
2018-Jun-17 18:30N 39°53' W 075°11'0 0.4
2018-Jun-17 18:00N 39°53' W 075°11'0 0.0
2018-Jun-17 17:30N 39°53' W 075°11'0 0.0
2018-Jun-17 17:00N 39°53' W 075°11'0 0.0
2018-Jun-17 16:30N 39°53' W 075°11'0 0.0
2018-Jun-17 16:00N 39°53' W 075°11'0 0.0
2018-Jun-17 15:30N 39°53' W 075°11'0 0.0
2018-Jun-17 15:01N 39°53' W 075°11'0 0.0
2018-Jun-17 14:31N 39°53' W 075°11'0 0.0
2018-Jun-17 14:00N 39°53' W 075°11'0 0.0
2018-Jun-17 13:30N 39°53' W 075°11'0 0.0
2018-Jun-17 13:01N 39°53' W 075°11'0 0.0
2018-Jun-17 12:30N 39°53' W 075°11'0 0.0
2018-Jun-17 12:00N 39°53' W 075°11'0 0.0
2018-Jun-17 11:30N 39°53' W 075°11'0 0.0
2018-Jun-17 11:01N 39°53' W 075°11'0 0.0
2018-Jun-17 10:31N 39°53' W 075°11'0 0.0
2018-Jun-17 10:00N 39°53' W 075°11'0 0.0
2018-Jun-17 09:30N 39°53' W 075°11'0 0.0
2018-Jun-17 09:00N 39°53' W 075°11'0 0.0
2018-Jun-17 08:30N 39°53' W 075°11'0 0.0
2018-Jun-17 08:00N 39°53' W 075°11'0 0.0
2018-Jun-17 07:30N 39°53' W 075°11'0 0.0
2018-Jun-17 07:00N 39°53' W 075°11'2 4.2
2018-Jun-17 06:30N 39°54' W 075°08'3 5.5
2018-Jun-17 06:00N 39°57' W 075°08'2 3.7
2018-Jun-17 05:31N 39°58' W 075°07'1 2.3
2018-Jun-17 05:00N 39°59' W 075°06'0 0.1
2018-Jun-17 04:31N 39°59' W 075°06'1 1.9
2018-Jun-17 04:00N 39°58' W 075°07'2 3.4
2018-Jun-17 03:30N 39°57' W 075°08'3 5.0
2018-Jun-17 03:00N 39°59' W 075°06'0 0.0
2018-Jun-17 02:30N 39°59' W 075°06'0 0.0
2018-Jun-17 02:01N 39°59' W 075°06'0 0.0
2018-Jun-17 01:30N 39°59' W 075°06'0 0.0
2018-Jun-17 01:00N 39°59' W 075°06'0 0.0
2018-Jun-17 00:30N 39°59' W 075°06'0 0.0
2018-Jun-17 00:00N 39°59' W 075°06'0 0.0
2018-Jun-16 23:30N 39°59' W 075°06'0 0.0
2018-Jun-16 23:00N 39°59' W 075°06'0 0.0
2018-Jun-16 22:30N 39°59' W 075°06'0 0.0
2018-Jun-16 22:00N 39°59' W 075°06'0 0.0
2018-Jun-16 21:30N 39°59' W 075°06'3 5.4
2018-Jun-16 21:00N 40°00' W 075°03'4 8.2
2018-Jun-16 20:30N 40°03' W 074°59'4 8.1
2018-Jun-16 20:01N 40°04' W 074°54'4 7.4
2018-Jun-16 19:31N 40°07' W 074°50'3 5.9
2018-Jun-16 18:58N 40°08' W 074°46'0 0.6
2018-Jun-16 18:30N 40°08' W 074°46'3 6.8
2018-Jun-16 18:00N 40°07' W 074°50'0 0.7
2018-Jun-16 17:30N 40°07' W 074°50'0 0.1
2018-Jun-16 17:01N 40°07' W 074°50'0 0.1
2018-Jun-16 16:30N 40°07' W 074°50'3 6.2
2018-Jun-16 16:00N 40°05' W 074°53'4 8.3
2018-Jun-16 15:30N 40°03' W 074°58'4 8.6
2018-Jun-16 15:00N 40°01' W 075°03'4 7.7
2018-Jun-16 14:30N 39°58' W 075°07'3 6.6
2018-Jun-16 14:00N 39°55' W 075°08'0 0.0
2018-Jun-16 13:30N 39°55' W 075°08'0 0.0
2018-Jun-16 13:00N 39°55' W 075°08'0 0.0
2018-Jun-16 12:30N 39°55' W 075°08'0 0.0
2018-Jun-16 12:00N 39°55' W 075°08'0 0.0
2018-Jun-16 11:30N 39°55' W 075°08'0 0.0
2018-Jun-16 11:00N 39°55' W 075°08'0 0.0
2018-Jun-16 10:30N 39°55' W 075°08'0 0.0
2018-Jun-16 10:00N 39°55' W 075°08'0 0.0
2018-Jun-16 09:30N 39°55' W 075°08'0 0.0
2018-Jun-16 09:01N 39°55' W 075°08'0 0.0
2018-Jun-16 08:30N 39°55' W 075°08'0 0.0
2018-Jun-16 08:00N 39°55' W 075°08'0 0.0
2018-Jun-16 07:31N 39°55' W 075°08'1 2.2
2018-Jun-16 07:00N 39°54' W 075°08'0 0.2
2018-Jun-16 06:30N 39°54' W 075°08'0 0.6
2018-Jun-16 06:00N 39°54' W 075°08'0 0.0
2018-Jun-16 05:30N 39°54' W 075°08'0 0.0
2018-Jun-16 05:00N 39°54' W 075°08'0 0.0
2018-Jun-16 04:30N 39°54' W 075°08'0 0.0
2018-Jun-16 04:01N 39°54' W 075°08'0 0.0
2018-Jun-16 03:30N 39°54' W 075°08'0 0.0
2018-Jun-16 03:00N 39°54' W 075°08'0 0.0
2018-Jun-16 02:30N 39°54' W 075°08'0 0.0
2018-Jun-16 02:00N 39°54' W 075°08'0 0.0
2018-Jun-16 01:30N 39°54' W 075°08'0 0.0
2018-Jun-16 01:00N 39°54' W 075°08'0 0.0
2018-Jun-16 00:31N 39°54' W 075°08'0 0.0
2018-Jun-16 00:00N 39°54' W 075°08'1 1.5
2018-Jun-15 23:30N 39°55' W 075°08'1 1.2
2018-Jun-15 23:00N 39°55' W 075°08'1 2.6
2018-Jun-15 22:31N 39°54' W 075°08'0 0.0
2018-Jun-15 22:00N 39°54' W 075°08'0 0.0
2018-Jun-15 21:30N 39°54' W 075°08'0 0.0
2018-Jun-15 21:00N 39°54' W 075°08'0 0.0
2018-Jun-15 20:30N 39°54' W 075°08'0 0.0
2018-Jun-15 19:56N 39°54' W 075°08'0 0.0
2018-Jun-15 19:30N 39°54' W 075°08'0 0.0
2018-Jun-15 19:00N 39°54' W 075°08'0 0.0
2018-Jun-15 18:31N 39°54' W 075°08'0 0.6
2018-Jun-15 18:00N 39°54' W 075°08'2 4.7
2018-Jun-15 17:31N 39°53' W 075°11'0 0.5
2018-Jun-15 17:00N 39°53' W 075°11'0 0.0
2018-Jun-15 16:30N 39°53' W 075°11'0 0.0
2018-Jun-15 16:00N 39°53' W 075°11'0 0.0
2018-Jun-15 15:30N 39°53' W 075°11'  
Track history (hours):
 
Tides and Currents Weather Stations Pressure Air Temp Water Temp Dewpoint Dewpoint Depression Visibility Wind Speed Wind Dir Waves Ship Positions

Annabelle Dorothy Moran

Owner: Moran Towing Corporation, New Canaan, CT. More information available from US FCC via Universal Licensing System and Coast Guard Vessel Documentation Center.

Last reported at 2018-Jun-25 15:30 UTC. Time now 2018-Jun-25 15:38 UTC.
Position N 40°07' W 074°48'.

Length 26 m; draft 4.8 m.

Type: Tug. MMSI: 367552410.

Date/timePositionNaut miles runAvg speedWind from/ knotsBaromVisibWave heightAir tempDewpointWater temp
2018-Jun-25 15:30N 40°07' W 074°48'2 5.0
2018-Jun-25 15:00N 40°08' W 074°45'0 0.0
2018-Jun-25 14:30N 40°08' W 074°45'0 0.0
2018-Jun-25 14:00N 40°08' W 074°45'0 0.0
2018-Jun-25 13:29N 40°08' W 074°45'0 0.0
2018-Jun-25 09:12N 40°08' W 074°45'0 1.4
2018-Jun-25 08:57N 40°08' W 074°46'0 0.7
2018-Jun-25 08:30N 40°08' W 074°46'1 1.6
2018-Jun-25 08:00N 40°08' W 074°45'0 0.0
2018-Jun-25 07:30N 40°08' W 074°45'0 0.0
2018-Jun-25 07:00N 40°08' W 074°45'0 0.0
2018-Jun-25 06:31N 40°08' W 074°45'0 0.0
2018-Jun-25 06:00N 40°08' W 074°45'3 6.9
2018-Jun-25 05:30N 40°07' W 074°50'4 8.6
2018-Jun-25 05:01N 40°05' W 074°54'5 9.6
2018-Jun-25 04:30N 40°02' W 074°59'5 9.8
2018-Jun-25 04:00N 39°59' W 075°04'4 8.9
2018-Jun-25 03:30N 39°56' W 075°08'3 6.5
2018-Jun-25 03:00N 39°53' W 075°11'0 0.0
2018-Jun-25 02:30N 39°53' W 075°11'0 0.0
2018-Jun-25 02:00N 39°53' W 075°11'0 0.1
2018-Jun-25 01:30N 39°53' W 075°11'0 0.1
2018-Jun-25 01:00N 39°53' W 075°11'0 0.1
2018-Jun-25 00:30N 39°53' W 075°11'0 0.1
2018-Jun-25 00:00N 39°53' W 075°11'0 0.0
2018-Jun-24 23:30N 39°53' W 075°11'0 0.0
2018-Jun-24 23:00N 39°53' W 075°11'0 0.0
2018-Jun-24 22:30N 39°53' W 075°11'0 0.0
2018-Jun-24 22:00N 39°53' W 075°11'0 0.0
2018-Jun-24 21:30N 39°53' W 075°11'0 0.0
2018-Jun-24 21:00N 39°53' W 075°11'0 0.0
2018-Jun-24 20:30N 39°53' W 075°11'0 0.0
2018-Jun-24 20:00N 39°53' W 075°11'0 0.0
2018-Jun-24 19:30N 39°53' W 075°11'0 0.0
2018-Jun-24 19:00N 39°53' W 075°11'0 0.0
2018-Jun-24 18:30N 39°53' W 075°11'0 0.0
2018-Jun-24 18:00N 39°53' W 075°11'0 0.0
2018-Jun-24 17:30N 39°53' W 075°11'0 0.0
2018-Jun-24 17:00N 39°53' W 075°11'0 0.0
2018-Jun-24 16:30N 39°53' W 075°11'0 0.0
2018-Jun-24 16:00N 39°53' W 075°11'0 0.0
2018-Jun-24 15:30N 39°53' W 075°11'0 0.0
2018-Jun-24 15:00N 39°53' W 075°11'0 0.0
2018-Jun-24 14:30N 39°53' W 075°11'0 0.0
2018-Jun-24 14:00N 39°53' W 075°11'0 0.0
2018-Jun-24 13:30N 39°53' W 075°11'0 0.0
2018-Jun-24 13:01N 39°53' W 075°11'1 2.4
2018-Jun-24 12:31N 39°53' W 075°09'0 0.1
2018-Jun-24 12:00N 39°53' W 075°09'2 3.4
2018-Jun-24 11:30N 39°54' W 075°08'0 0.3
2018-Jun-24 11:00N 39°54' W 075°08'0 0.0
2018-Jun-24 10:30N 39°54' W 075°08'0 0.0
2018-Jun-24 10:00N 39°54' W 075°08'0 0.0
2018-Jun-24 09:30N 39°54' W 075°08'1 2.0
2018-Jun-24 09:00N 39°53' W 075°09'2 3.1
2018-Jun-24 08:30N 39°53' W 075°11'0 0.0
2018-Jun-24 08:00N 39°53' W 075°11'0 0.0
2018-Jun-24 07:30N 39°53' W 075°11'0 0.0
2018-Jun-24 07:00N 39°53' W 075°11'0 0.0
2018-Jun-24 06:30N 39°53' W 075°11'0 0.0
2018-Jun-24 06:00N 39°53' W 075°11'0 0.0
2018-Jun-24 05:30N 39°53' W 075°11'0 0.0
2018-Jun-24 05:00N 39°53' W 075°11'0 0.0
2018-Jun-24 04:30N 39°53' W 075°11'0 0.0
2018-Jun-24 04:00N 39°53' W 075°11'0 0.0
2018-Jun-24 03:30N 39°53' W 075°11'0 0.0
2018-Jun-24 03:00N 39°53' W 075°11'0 0.0
2018-Jun-24 02:30N 39°53' W 075°11'0 0.0
2018-Jun-24 02:00N 39°53' W 075°11'0 0.0
2018-Jun-24 01:30N 39°53' W 075°11'0 0.0
2018-Jun-24 01:00N 39°53' W 075°11'0 0.0
2018-Jun-24 00:30N 39°53' W 075°11'3 5.6
2018-Jun-24 00:00N 39°52' W 075°14'2 4.2
2018-Jun-23 23:31N 39°51' W 075°16'0 0.1
2018-Jun-23 23:01N 39°51' W 075°16'1 2.3
2018-Jun-23 22:30N 39°51' W 075°15'4 7.4
2018-Jun-23 22:00N 39°53' W 075°11'0 0.0
2018-Jun-23 21:30N 39°53' W 075°11'0 0.0
2018-Jun-23 21:00N 39°53' W 075°11'0 0.0
2018-Jun-23 20:31N 39°53' W 075°11'0 0.0
2018-Jun-23 20:00N 39°53' W 075°11'0 0.0
2018-Jun-23 19:30N 39°53' W 075°11'0 0.0
2018-Jun-23 19:00N 39°53' W 075°11'0 0.0
2018-Jun-23 18:31N 39°53' W 075°11'0 0.0
2018-Jun-23 18:00N 39°53' W 075°11'0 0.0
2018-Jun-23 17:30N 39°53' W 075°11'0 0.0
2018-Jun-23 17:00N 39°53' W 075°11'0 0.0
2018-Jun-23 16:30N 39°53' W 075°11'0 0.0
2018-Jun-23 16:00N 39°53' W 075°11'0 0.0
2018-Jun-23 15:30N 39°53' W 075°11'0 0.0
2018-Jun-23 15:00N 39°53' W 075°11'0 0.0
2018-Jun-23 14:30N 39°53' W 075°11'1 1.9
2018-Jun-23 14:01N 39°53' W 075°12'1 2.7
2018-Jun-23 13:30N 39°52' W 075°13'0 0.0
2018-Jun-23 13:00N 39°52' W 075°13'0 0.6
2018-Jun-23 12:30N 39°52' W 075°13'0 0.3
2018-Jun-23 12:00N 39°52' W 075°14'2 4.8
2018-Jun-23 11:30N 39°53' W 075°11'0 0.5
2018-Jun-23 11:00N 39°53' W 075°11'0 0.0
2018-Jun-23 10:30N 39°53' W 075°11'0 0.0
2018-Jun-23 10:00N 39°53' W 075°11'0 0.0
2018-Jun-23 09:31N 39°53' W 075°11'0 0.0
2018-Jun-23 09:01N 39°53' W 075°11'0 0.0
2018-Jun-23 08:30N 39°53' W 075°11'0 0.0
2018-Jun-23 08:01N 39°53' W 075°11'0 0.0
2018-Jun-23 07:30N 39°53' W 075°11'0 0.0
2018-Jun-23 07:01N 39°53' W 075°11'0 0.0
2018-Jun-23 06:30N 39°53' W 075°11'0 0.0
2018-Jun-23 06:00N 39°53' W 075°11'0 0.0
2018-Jun-23 05:30N 39°53' W 075°11'0 0.0
2018-Jun-23 05:00N 39°53' W 075°11'2 4.0
2018-Jun-23 04:30N 39°54' W 075°08'4 8.8
2018-Jun-23 04:00N 39°58' W 075°07'1 1.9
2018-Jun-23 03:31N 39°59' W 075°06'0 0.0
2018-Jun-23 03:01N 39°59' W 075°06'0 0.2
2018-Jun-23 02:30N 39°59' W 075°06'4 7.5
2018-Jun-23 02:00N 39°55' W 075°08'1 2.4
2018-Jun-23 01:31N 39°54' W 075°08'1 1.5
2018-Jun-23 01:00N 39°53' W 075°08'4 8.4
2018-Jun-23 00:31N 39°52' W 075°13'0 1.0
2018-Jun-23 00:00N 39°51' W 075°14'0 0.0
2018-Jun-22 23:30N 39°51' W 075°14'0 1.0
2018-Jun-22 23:00N 39°52' W 075°14'1 1.0
2018-Jun-22 22:30N 39°52' W 075°13'2 4.2
2018-Jun-22 22:00N 39°54' W 075°12'1 1.4
2018-Jun-22 21:30N 39°53' W 075°12'0 0.5
2018-Jun-22 21:00N 39°53' W 075°12'2 4.2
2018-Jun-22 20:30N 39°53' W 075°09'1 2.4
2018-Jun-22 20:00N 39°54' W 075°08'0 0.3
2018-Jun-22 19:31N 39°54' W 075°08'0 0.0
2018-Jun-22 19:00N 39°54' W 075°08'0 0.0
2018-Jun-22 18:30N 39°54' W 075°08'2 4.3
2018-Jun-22 18:00N 39°56' W 075°08'0 0.2
2018-Jun-22 17:30N 39°56' W 075°08'2 4.2
2018-Jun-22 17:00N 39°54' W 075°08'0 0.0
2018-Jun-22 16:30N 39°54' W 075°08'2 4.2
2018-Jun-22 15:59N 39°56' W 075°08'4 7.4
2018-Jun-22 15:30N 39°59' W 075°05'1 0.7
2018-Jun-22 14:30N 39°59' W 075°04'1 2.5
2018-Jun-22 14:00N 39°59' W 075°06'0 0.4
2018-Jun-22 13:24N 39°59' W 075°06'0 0.6
2018-Jun-22 13:00N 39°59' W 075°06'0 0.0
2018-Jun-22 12:30N 39°59' W 075°06'0 0.0
2018-Jun-22 12:00N 39°59' W 075°06'0 0.0
2018-Jun-22 11:30N 39°59' W 075°06'0 0.0
2018-Jun-22 11:00N 39°59' W 075°06'0 0.0
2018-Jun-22 10:30N 39°59' W 075°06'0 0.0
2018-Jun-22 10:00N 39°59' W 075°06'0 0.0
2018-Jun-22 09:31N 39°59' W 075°06'0 0.0
2018-Jun-22 09:01N 39°59' W 075°06'0 0.0
2018-Jun-22 08:30N 39°59' W 075°06'0 0.0
2018-Jun-22 08:00N 39°59' W 075°06'0 0.0
2018-Jun-22 07:30N 39°59' W 075°06'0 0.0
2018-Jun-22 07:00N 39°59' W 075°06'0 0.0
2018-Jun-22 06:30N 39°59' W 075°06'0 0.0
2018-Jun-22 06:00N 39°59' W 075°06'0 0.0
2018-Jun-22 05:30N 39°59' W 075°06'0 0.0
2018-Jun-22 05:00N 39°59' W 075°06'0 0.0
2018-Jun-22 04:30N 39°59' W 075°06'0 0.0
2018-Jun-22 04:00N 39°59' W 075°06'0 0.0
2018-Jun-22 03:30N 39°59' W 075°06'0 0.0
2018-Jun-22 03:00N 39°59' W 075°06'2 4.6
2018-Jun-22 02:30N 39°57' W 075°08'4 8.7
2018-Jun-22 02:00N 39°53' W 075°09'0 0.1
2018-Jun-22 01:30N 39°53' W 075°09'1 1.3
2018-Jun-22 01:00N 39°53' W 075°10'2 3.6
2018-Jun-22 00:30N 39°54' W 075°12'1 2.3
2018-Jun-21 23:58N 39°53' W 075°11'0 0.0
2018-Jun-21 23:30N 39°53' W 075°11'2 4.2
2018-Jun-21 23:00N 39°54' W 075°08'0 0.5
2018-Jun-21 22:30N 39°54' W 075°08'1 2.4
2018-Jun-21 22:00N 39°53' W 075°09'0 0.9
2018-Jun-21 21:30N 39°53' W 075°09'2 3.2
2018-Jun-21 21:00N 39°54' W 075°08'0 0.0
2018-Jun-21 20:30N 39°54' W 075°08'0 1.0
2018-Jun-21 20:00N 39°54' W 075°08'4 7.2
2018-Jun-21 19:30N 39°52' W 075°12'4 7.6
2018-Jun-21 19:00N 39°51' W 075°17'3 5.0
2018-Jun-21 18:29N 39°51' W 075°20'0 0.9
2018-Jun-21 18:00N 39°51' W 075°21'2 3.8
2018-Jun-21 17:30N 39°50' W 075°23'2 4.5
2018-Jun-21 17:00N 39°51' W 075°20'0 0.0
2018-Jun-21 16:30N 39°51' W 075°20'0 0.0
2018-Jun-21 16:00N 39°51' W 075°20'0 0.0
2018-Jun-21 15:30N 39°51' W 075°20'510.0
2018-Jun-21 15:00N 39°52' W 075°14'3 5.5
2018-Jun-21 14:30N 39°53' W 075°11'0 0.3
2018-Jun-21 14:00N 39°53' W 075°11'0 0.1
2018-Jun-21 13:30N 39°53' W 075°11'0 0.5
2018-Jun-21 13:00N 39°53' W 075°11'0 0.0
2018-Jun-21 12:30N 39°53' W 075°11'0 0.0
2018-Jun-21 12:00N 39°53' W 075°11'0 0.0
2018-Jun-21 11:30N 39°53' W 075°11'0 0.0
2018-Jun-21 11:00N 39°53' W 075°11'0 0.0
2018-Jun-21 10:30N 39°53' W 075°11'0 0.0
2018-Jun-21 10:01N 39°53' W 075°11'0 0.0
2018-Jun-21 09:30N 39°53' W 075°11'0 0.0
2018-Jun-21 09:00N 39°53' W 075°11'0 0.0
2018-Jun-21 08:30N 39°53' W 075°11'0 0.0
2018-Jun-21 08:01N 39°53' W 075°11'0 0.0
2018-Jun-21 07:30N 39°53' W 075°11'0 0.0
2018-Jun-21 07:01N 39°53' W 075°11'0 0.0
2018-Jun-21 06:30N 39°53' W 075°11'0 0.0
2018-Jun-21 06:00N 39°53' W 075°11'0 0.0
2018-Jun-21 05:30N 39°53' W 075°11'2 4.3
2018-Jun-21 05:00N 39°52' W 075°13'4 8.0
2018-Jun-21 04:30N 39°51' W 075°18'4 7.8
2018-Jun-21 04:00N 39°49' W 075°23'4 8.4
2018-Jun-21 03:30N 39°47' W 075°27'4 8.4
2018-Jun-21 03:00N 39°44' W 075°30'1 2.2
2018-Jun-21 02:30N 39°43' W 075°31'2 3.1
2018-Jun-21 02:00N 39°41' W 075°31'510.0
2018-Jun-21 01:30N 39°37' W 075°35'2 3.7
2018-Jun-21 01:00N 39°35' W 075°35'0 0.8
2018-Jun-21 00:30N 39°35' W 075°36'0 0.0
2018-Jun-21 00:00N 39°35' W 075°36'1 1.6
2018-Jun-20 23:30N 39°35' W 075°35'3 5.7
2018-Jun-20 23:00N 39°32' W 075°33'3 6.9
2018-Jun-20 22:30N 39°35' W 075°35'1 2.6
2018-Jun-20 22:00N 39°35' W 075°34'4 7.8
2018-Jun-20 21:30N 39°39' W 075°33'4 7.3
2018-Jun-20 21:00N 39°43' W 075°31'0 0.0
2018-Jun-20 20:30N 39°43' W 075°31'0 0.2
2018-Jun-20 20:00N 39°42' W 075°31'4 6.9
2018-Jun-20 19:30N 39°46' W 075°29'4 7.8
2018-Jun-20 19:00N 39°48' W 075°25'5 9.1
2018-Jun-20 18:30N 39°51' W 075°20'5 9.7
2018-Jun-20 18:00N 39°52' W 075°14'3 6.3
2018-Jun-20 17:30N 39°53' W 075°11'0 0.0
2018-Jun-20 17:00N 39°53' W 075°11'0 0.0
2018-Jun-20 16:31N 39°53' W 075°11'0 0.1
2018-Jun-20 16:01N 39°53' W 075°11'2 4.6
2018-Jun-20 15:30N 39°54' W 075°08'0 0.0
2018-Jun-20 15:00N 39°54' W 075°08'2 3.5
2018-Jun-20 14:31N 39°53' W 075°10'1 1.7
2018-Jun-20 14:01N 39°53' W 075°11'0 0.0
2018-Jun-20 13:31N 39°53' W 075°11'0 0.0
2018-Jun-20 13:01N 39°53' W 075°11'0 0.0
2018-Jun-20 12:31N 39°53' W 075°11'0 0.2
2018-Jun-20 12:00N 39°53' W 075°11'5 9.7
2018-Jun-20 11:31N 39°51' W 075°16'510.6
2018-Jun-20 11:00N 39°49' W 075°23'1 2.7
2018-Jun-20 10:30N 39°49' W 075°24'0 0.0
2018-Jun-20 10:00N 39°49' W 075°24'0 0.0
2018-Jun-20 09:30N 39°49' W 075°24'1 2.2
2018-Jun-20 09:00N 39°49' W 075°23'4 7.6
2018-Jun-20 08:30N 39°51' W 075°19'4 8.0
2018-Jun-20 08:00N 39°52' W 075°14'1 1.4
2018-Jun-20 07:30N 39°52' W 075°13'2 4.1
2018-Jun-20 07:00N 39°53' W 075°11'0 0.0
2018-Jun-20 06:30N 39°53' W 075°11'0 0.0
2018-Jun-20 06:00N 39°53' W 075°11'0 0.0
2018-Jun-20 05:30N 39°53' W 075°11'0 0.0
2018-Jun-20 05:00N 39°53' W 075°11'0 0.0
2018-Jun-20 04:30N 39°53' W 075°11'0 0.0
2018-Jun-20 04:00N 39°53' W 075°11'0 0.0
2018-Jun-20 03:30N 39°53' W 075°11'0 0.0
2018-Jun-20 03:00N 39°53' W 075°11'0 0.0
2018-Jun-20 02:31N 39°53' W 075°11'0 0.0
2018-Jun-20 02:00N 39°53' W 075°11'0 0.0
2018-Jun-20 01:30N 39°53' W 075°11'0 0.1
2018-Jun-20 01:00N 39°53' W 075°11'0 0.1
2018-Jun-20 00:30N 39°53' W 075°11'0 0.0
2018-Jun-20 00:00N 39°53' W 075°11'0 0.0
2018-Jun-19 23:30N 39°53' W 075°11'0 0.0
2018-Jun-19 23:00N 39°53' W 075°11'0 0.0
2018-Jun-19 22:31N 39°53' W 075°11'0 0.0
2018-Jun-19 22:00N 39°53' W 075°11'0 0.0
2018-Jun-19 21:30N 39°53' W 075°11'0 0.0
2018-Jun-19 21:01N 39°53' W 075°11'0 0.0
2018-Jun-19 20:30N 39°53' W 075°11'0 0.0
2018-Jun-19 20:01N 39°53' W 075°11'2 3.6
2018-Jun-19 19:30N 39°54' W 075°08'1 1.3
2018-Jun-19 19:00N 39°54' W 075°08'2 3.7
2018-Jun-19 18:31N 39°53' W 075°10'1 1.6
2018-Jun-19 18:00N 39°53' W 075°11'0 0.0
2018-Jun-19 17:31N 39°53' W 075°11'2 4.7
2018-Jun-19 17:00N 39°54' W 075°08'0 0.2
2018-Jun-19 16:30N 39°54' W 075°08'2 4.3
2018-Jun-19 16:01N 39°53' W 075°11'0 0.0
2018-Jun-19 15:30N 39°53' W 075°11'0 0.0
2018-Jun-19 15:01N 39°53' W 075°11'0 0.0
2018-Jun-19 14:31N 39°53' W 075°11'0 0.0
2018-Jun-19 14:00N 39°53' W 075°11'0 0.0
2018-Jun-19 13:31N 39°53' W 075°11'0 0.0
2018-Jun-19 13:00N 39°53' W 075°11'0 0.5
2018-Jun-19 12:30N 39°53' W 075°11'0 0.0
2018-Jun-19 12:00N 39°53' W 075°11'1 2.1
2018-Jun-19 11:31N 39°53' W 075°12'1 2.5
2018-Jun-19 11:00N 39°53' W 075°11'0 0.0
2018-Jun-19 10:30N 39°53' W 075°11'0 0.0
2018-Jun-19 10:01N 39°53' W 075°11'0 0.0
2018-Jun-19 09:30N 39°53' W 075°11'0 0.0
2018-Jun-19 09:01N 39°53' W 075°11'0 0.0
2018-Jun-19 08:30N 39°53' W 075°11'0 0.0
2018-Jun-19 08:01N 39°53' W 075°11'0 0.0
2018-Jun-19 07:31N 39°53' W 075°11'2 3.7
2018-Jun-19 07:00N 39°54' W 075°08'1 1.3
2018-Jun-19 06:31N 39°54' W 075°08'0 0.2
2018-Jun-19 06:00N 39°54' W 075°08'0 0.1
2018-Jun-19 05:31N 39°54' W 075°08'0 0.0
2018-Jun-19 05:00N 39°54' W 075°08'0 0.0
2018-Jun-19 04:30N 39°54' W 075°08'0 0.2
2018-Jun-19 04:01N 39°54' W 075°08'1 2.3
2018-Jun-19 03:31N 39°55' W 075°08'1 2.5
2018-Jun-19 03:01N 39°54' W 075°08'0 0.2
2018-Jun-19 02:30N 39°54' W 075°08'0 0.0
2018-Jun-19 02:00N 39°54' W 075°08'0 0.0
2018-Jun-19 01:30N 39°54' W 075°08'0 1.0
2018-Jun-19 01:01N 39°54' W 075°08'0 0.1
2018-Jun-19 00:30N 39°54' W 075°08'2 3.8
2018-Jun-19 00:01N 39°53' W 075°10'1 1.8
2018-Jun-18 23:31N 39°53' W 075°11'0 0.0
2018-Jun-18 23:00N 39°53' W 075°11'1 1.5
2018-Jun-18 22:31N 39°53' W 075°10'2 3.6
2018-Jun-18 22:01N 39°54' W 075°08'0 1.0
2018-Jun-18 21:30N 39°54' W 075°08'2 4.3
2018-Jun-18 21:00N 39°53' W 075°11'2 3.0
2018-Jun-18 20:30N 39°53' W 075°09'1 2.9
2018-Jun-18 20:00N 39°53' W 075°11'0 0.0
2018-Jun-18 19:30N 39°53' W 075°11'0 0.0
2018-Jun-18 19:00N 39°53' W 075°11'0 0.0
2018-Jun-18 18:31N 39°53' W 075°11'0 0.0
2018-Jun-18 18:00N 39°53' W 075°11'1 1.7
2018-Jun-18 17:31N 39°54' W 075°12'0 0.0
2018-Jun-18 17:01N 39°54' W 075°12'0 0.1
2018-Jun-18 16:30N 39°53' W 075°12'0 0.0
2018-Jun-18 16:00N 39°53' W 075°12'0 0.0
2018-Jun-18 15:30N 39°53' W 075°12'0 0.0
2018-Jun-18 15:00N 39°53' W 075°12'0 0.0
2018-Jun-18 14:31N 39°53' W 075°12'1 1.7
2018-Jun-18 14:00N 39°53' W 075°11'0 0.0
2018-Jun-18 13:30N 39°53' W 075°11'0 0.0
2018-Jun-18 13:00N 39°53' W 075°11'0 0.0
2018-Jun-18 12:30N 39°53' W 075°11'0 0.0
2018-Jun-18 12:00N 39°53' W 075°11'0 0.2
2018-Jun-18 11:31N 39°53' W 075°11'2 4.8
2018-Jun-18 11:01N 39°54' W 075°08'4 8.4
2018-Jun-18 10:31N 39°58' W 075°07'1 2.2
2018-Jun-18 10:01N 39°59' W 075°06'1 1.6
2018-Jun-18 09:31N 39°58' W 075°06'5 9.2
2018-Jun-18 09:01N 39°54' W 075°08'0 0.2
2018-Jun-18 08:30N 39°54' W 075°08'0 0.8
2018-Jun-18 08:01N 39°53' W 075°08'2 3.6
2018-Jun-18 07:30N 39°53' W 075°11'0 0.0
2018-Jun-18 07:01N 39°53' W 075°11'0 0.0
2018-Jun-18 06:30N 39°53' W 075°11'0 0.0
2018-Jun-18 06:00N 39°53' W 075°11'1 1.7
2018-Jun-18 05:31N 39°53' W 075°10'0 0.0
2018-Jun-18 05:00N 39°53' W 075°10'0 0.0
2018-Jun-18 04:30N 39°53' W 075°10'0 0.5
2018-Jun-18 04:01N 39°53' W 075°10'2 4.2
2018-Jun-18 03:31N 39°52' W 075°13'2 3.4
2018-Jun-18 03:00N 39°53' W 075°11'0 0.0
2018-Jun-18 02:30N 39°53' W 075°11'0 0.0
2018-Jun-18 02:00N 39°53' W 075°11'0 0.0
2018-Jun-18 01:30N 39°53' W 075°11'0 0.0
2018-Jun-18 01:01N 39°53' W 075°11'0 0.1
2018-Jun-18 00:30N 39°53' W 075°11'0 0.0
2018-Jun-18 00:00N 39°53' W 075°11'0 0.0
2018-Jun-17 23:30N 39°53' W 075°11'0 0.0
2018-Jun-17 23:00N 39°53' W 075°11'0 0.0
2018-Jun-17 22:30N 39°53' W 075°11'0 0.0
2018-Jun-17 22:00N 39°53' W 075°11'0 0.0
2018-Jun-17 21:30N 39°53' W 075°11'0 0.0
2018-Jun-17 21:00N 39°53' W 075°11'0 0.0
2018-Jun-17 20:30N 39°53' W 075°11'0 0.0
2018-Jun-17 20:00N 39°53' W 075°11'0 0.0
2018-Jun-17 19:30N 39°53' W 075°11'0 0.1
2018-Jun-17 19:00N 39°53' W 075°11'0 0.5
2018-Jun-17 18:30N 39°53' W 075°11'0 0.4
2018-Jun-17 18:00N 39°53' W 075°11'0 0.0
2018-Jun-17 17:30N 39°53' W 075°11'0 0.0
2018-Jun-17 17:00N 39°53' W 075°11'0 0.0
2018-Jun-17 16:30N 39°53' W 075°11'0 0.0
2018-Jun-17 16:00N 39°53' W 075°11'0 0.0
2018-Jun-17 15:30N 39°53' W 075°11'0 0.0
2018-Jun-17 15:01N 39°53' W 075°11'0 0.0
2018-Jun-17 14:31N 39°53' W 075°11'0 0.0
2018-Jun-17 14:00N 39°53' W 075°11'0 0.0
2018-Jun-17 13:30N 39°53' W 075°11'0 0.0
2018-Jun-17 13:01N 39°53' W 075°11'0 0.0
2018-Jun-17 12:30N 39°53' W 075°11'0 0.0
2018-Jun-17 12:00N 39°53' W 075°11'0 0.0
2018-Jun-17 11:30N 39°53' W 075°11'0 0.0
2018-Jun-17 11:01N 39°53' W 075°11'0 0.0
2018-Jun-17 10:31N 39°53' W 075°11'0 0.0
2018-Jun-17 10:00N 39°53' W 075°11'0 0.0
2018-Jun-17 09:30N 39°53' W 075°11'0 0.0
2018-Jun-17 09:00N 39°53' W 075°11'0 0.0
2018-Jun-17 08:30N 39°53' W 075°11'0 0.0
2018-Jun-17 08:00N 39°53' W 075°11'0 0.0
2018-Jun-17 07:30N 39°53' W 075°11'0 0.0
2018-Jun-17 07:00N 39°53' W 075°11'2 4.2
2018-Jun-17 06:30N 39°54' W 075°08'3 5.5
2018-Jun-17 06:00N 39°57' W 075°08'2 3.7
2018-Jun-17 05:31N 39°58' W 075°07'1 2.3
2018-Jun-17 05:00N 39°59' W 075°06'0 0.1
2018-Jun-17 04:31N 39°59' W 075°06'1 1.9
2018-Jun-17 04:00N 39°58' W 075°07'2 3.4
2018-Jun-17 03:30N 39°57' W 075°08'3 5.0
2018-Jun-17 03:00N 39°59' W 075°06'0 0.0
2018-Jun-17 02:30N 39°59' W 075°06'0 0.0
2018-Jun-17 02:01N 39°59' W 075°06'0 0.0
2018-Jun-17 01:30N 39°59' W 075°06'0 0.0
2018-Jun-17 01:00N 39°59' W 075°06'0 0.0
2018-Jun-17 00:30N 39°59' W 075°06'0 0.0
2018-Jun-17 00:00N 39°59' W 075°06'0 0.0
2018-Jun-16 23:30N 39°59' W 075°06'0 0.0
2018-Jun-16 23:00N 39°59' W 075°06'0 0.0
2018-Jun-16 22:30N 39°59' W 075°06'0 0.0
2018-Jun-16 22:00N 39°59' W 075°06'0 0.0
2018-Jun-16 21:30N 39°59' W 075°06'3 5.4
2018-Jun-16 21:00N 40°00' W 075°03'4 8.2
2018-Jun-16 20:30N 40°03' W 074°59'4 8.1
2018-Jun-16 20:01N 40°04' W 074°54'4 7.4
2018-Jun-16 19:31N 40°07' W 074°50'3 5.9
2018-Jun-16 18:58N 40°08' W 074°46'0 0.6
2018-Jun-16 18:30N 40°08' W 074°46'3 6.8
2018-Jun-16 18:00N 40°07' W 074°50'0 0.7
2018-Jun-16 17:30N 40°07' W 074°50'0 0.1
2018-Jun-16 17:01N 40°07' W 074°50'0 0.1
2018-Jun-16 16:30N 40°07' W 074°50'3 6.2
2018-Jun-16 16:00N 40°05' W 074°53'4 8.3
2018-Jun-16 15:30N 40°03' W 074°58'4 8.6
2018-Jun-16 15:00N 40°01' W 075°03'4 7.7
2018-Jun-16 14:30N 39°58' W 075°07'3 6.6
2018-Jun-16 14:00N 39°55' W 075°08'0 0.0
2018-Jun-16 13:30N 39°55' W 075°08'0 0.0
2018-Jun-16 13:00N 39°55' W 075°08'0 0.0
2018-Jun-16 12:30N 39°55' W 075°08'0 0.0
2018-Jun-16 12:00N 39°55' W 075°08'0 0.0
2018-Jun-16 11:30N 39°55' W 075°08'0 0.0
2018-Jun-16 11:00N 39°55' W 075°08'0 0.0
2018-Jun-16 10:30N 39°55' W 075°08'0 0.0
2018-Jun-16 10:00N 39°55' W 075°08'0 0.0
2018-Jun-16 09:30N 39°55' W 075°08'0 0.0
2018-Jun-16 09:01N 39°55' W 075°08'0 0.0
2018-Jun-16 08:30N 39°55' W 075°08'0 0.0
2018-Jun-16 08:00N 39°55' W 075°08'0 0.0
2018-Jun-16 07:31N 39°55' W 075°08'1 2.2
2018-Jun-16 07:00N 39°54' W 075°08'0 0.2
2018-Jun-16 06:30N 39°54' W 075°08'0 0.6
2018-Jun-16 06:00N 39°54' W 075°08'0 0.0
2018-Jun-16 05:30N 39°54' W 075°08'0 0.0
2018-Jun-16 05:00N 39°54' W 075°08'0 0.0
2018-Jun-16 04:30N 39°54' W 075°08'0 0.0
2018-Jun-16 04:01N 39°54' W 075°08'0 0.0
2018-Jun-16 03:30N 39°54' W 075°08'0 0.0
2018-Jun-16 03:00N 39°54' W 075°08'0 0.0
2018-Jun-16 02:30N 39°54' W 075°08'0 0.0
2018-Jun-16 02:00N 39°54' W 075°08'0 0.0
2018-Jun-16 01:30N 39°54' W 075°08'0 0.0
2018-Jun-16 01:00N 39°54' W 075°08'0 0.0
2018-Jun-16 00:31N 39°54' W 075°08'0 0.0
2018-Jun-16 00:00N 39°54' W 075°08'1 1.5
2018-Jun-15 23:30N 39°55' W 075°08'1 1.2
2018-Jun-15 23:00N 39°55' W 075°08'1 2.6
2018-Jun-15 22:31N 39°54' W 075°08'0 0.0
2018-Jun-15 22:00N 39°54' W 075°08'0 0.0
2018-Jun-15 21:30N 39°54' W 075°08'0 0.0
2018-Jun-15 21:00N 39°54' W 075°08'0 0.0
2018-Jun-15 20:30N 39°54' W 075°08'0 0.0
2018-Jun-15 19:56N 39°54' W 075°08'0 0.0
2018-Jun-15 19:30N 39°54' W 075°08'0 0.0
2018-Jun-15 19:00N 39°54' W 075°08'0 0.0
2018-Jun-15 18:31N 39°54' W 075°08'0 0.6
2018-Jun-15 18:00N 39°54' W 075°08'2 4.7
2018-Jun-15 17:31N 39°53' W 075°11'0 0.5
2018-Jun-15 17:00N 39°53' W 075°11'0 0.0
2018-Jun-15 16:30N 39°53' W 075°11'0 0.0
2018-Jun-15 16:00N 39°53' W 075°11'0 0.0
2018-Jun-15 15:30N 39°53' W 075°11'  

Dump ship's entire track history